sensor_id;sensor_type;location;lat;lon;timestamp;P1;durP1;ratioP1;P2;durP2;ratioP2
18532;SDS011;9396;51.510;11.934;2023-11-21T00:02:01;5.23;;;2.30;;
18532;SDS011;9396;51.510;11.934;2023-11-21T00:04:29;6.67;;;2.80;;
18532;SDS011;9396;51.510;11.934;2023-11-21T00:06:57;7.47;;;2.40;;
18532;SDS011;9396;51.510;11.934;2023-11-21T00:09:23;5.17;;;2.30;;
18532;SDS011;9396;51.510;11.934;2023-11-21T00:11:50;5.70;;;2.03;;
18532;SDS011;9396;51.510;11.934;2023-11-21T00:14:17;4.50;;;2.17;;
18532;SDS011;9396;51.510;11.934;2023-11-21T00:16:44;4.30;;;2.17;;
18532;SDS011;9396;51.510;11.934;2023-11-21T00:19:10;5.00;;;2.33;;
18532;SDS011;9396;51.510;11.934;2023-11-21T00:21:37;3.43;;;2.07;;
18532;SDS011;9396;51.510;11.934;2023-11-21T00:24:06;8.13;;;2.50;;
18532;SDS011;9396;51.510;11.934;2023-11-21T00:26:33;4.43;;;2.20;;
18532;SDS011;9396;51.510;11.934;2023-11-21T00:29:01;5.60;;;2.30;;
18532;SDS011;9396;51.510;11.934;2023-11-21T00:31:28;5.10;;;2.40;;
18532;SDS011;9396;51.510;11.934;2023-11-21T00:33:55;4.67;;;2.43;;
18532;SDS011;9396;51.510;11.934;2023-11-21T00:36:22;3.73;;;2.40;;
18532;SDS011;9396;51.510;11.934;2023-11-21T00:38:49;5.73;;;2.47;;
18532;SDS011;9396;51.510;11.934;2023-11-21T00:41:17;6.07;;;2.93;;
18532;SDS011;9396;51.510;11.934;2023-11-21T00:43:43;8.27;;;3.07;;
18532;SDS011;9396;51.510;11.934;2023-11-21T00:46:11;10.23;;;2.97;;
18532;SDS011;9396;51.510;11.934;2023-11-21T00:48:37;4.00;;;3.17;;
18532;SDS011;9396;51.510;11.934;2023-11-21T00:51:04;5.37;;;3.30;;
18532;SDS011;9396;51.510;11.934;2023-11-21T00:53:32;3.53;;;2.80;;
18532;SDS011;9396;51.510;11.934;2023-11-21T00:55:58;5.40;;;3.40;;
18532;SDS011;9396;51.510;11.934;2023-11-21T00:58:26;5.10;;;3.10;;
18532;SDS011;9396;51.510;11.934;2023-11-21T01:00:53;4.83;;;2.70;;
18532;SDS011;9396;51.510;11.934;2023-11-21T01:03:20;4.63;;;2.83;;
18532;SDS011;9396;51.510;11.934;2023-11-21T01:05:46;7.33;;;2.83;;
18532;SDS011;9396;51.510;11.934;2023-11-21T01:08:14;3.20;;;2.50;;
18532;SDS011;9396;51.510;11.934;2023-11-21T01:10:41;3.33;;;2.27;;
18532;SDS011;9396;51.510;11.934;2023-11-21T01:13:08;5.00;;;2.60;;
18532;SDS011;9396;51.510;11.934;2023-11-21T01:15:37;9.50;;;2.90;;
18532;SDS011;9396;51.510;11.934;2023-11-21T01:18:03;5.10;;;2.83;;
18532;SDS011;9396;51.510;11.934;2023-11-21T01:20:30;4.53;;;3.30;;
18532;SDS011;9396;51.510;11.934;2023-11-21T01:22:57;4.87;;;2.50;;
18532;SDS011;9396;51.510;11.934;2023-11-21T01:25:24;5.23;;;2.90;;
18532;SDS011;9396;51.510;11.934;2023-11-21T01:27:51;4.97;;;2.63;;
18532;SDS011;9396;51.510;11.934;2023-11-21T01:30:18;4.83;;;2.80;;
18532;SDS011;9396;51.510;11.934;2023-11-21T01:32:49;6.30;;;2.87;;
18532;SDS011;9396;51.510;11.934;2023-11-21T01:35:15;5.00;;;2.80;;
18532;SDS011;9396;51.510;11.934;2023-11-21T01:37:42;5.50;;;2.63;;
18532;SDS011;9396;51.510;11.934;2023-11-21T01:40:09;5.37;;;3.10;;
18532;SDS011;9396;51.510;11.934;2023-11-21T01:42:39;5.03;;;3.00;;
18532;SDS011;9396;51.510;11.934;2023-11-21T01:45:06;4.63;;;2.90;;
18532;SDS011;9396;51.510;11.934;2023-11-21T01:47:34;5.87;;;2.47;;
18532;SDS011;9396;51.510;11.934;2023-11-21T01:50:04;4.43;;;3.27;;
18532;SDS011;9396;51.510;11.934;2023-11-21T01:52:33;5.93;;;3.13;;
18532;SDS011;9396;51.510;11.934;2023-11-21T01:55:00;4.63;;;3.27;;
18532;SDS011;9396;51.510;11.934;2023-11-21T01:57:28;6.53;;;3.07;;
18532;SDS011;9396;51.510;11.934;2023-11-21T01:59:55;4.90;;;3.13;;
18532;SDS011;9396;51.510;11.934;2023-11-21T02:02:24;4.90;;;3.33;;
18532;SDS011;9396;51.510;11.934;2023-11-21T02:04:50;5.83;;;3.03;;
18532;SDS011;9396;51.510;11.934;2023-11-21T02:07:27;5.70;;;2.87;;
18532;SDS011;9396;51.510;11.934;2023-11-21T02:09:55;5.40;;;3.13;;
18532;SDS011;9396;51.510;11.934;2023-11-21T02:12:21;4.77;;;3.13;;
18532;SDS011;9396;51.510;11.934;2023-11-21T02:14:51;4.97;;;3.00;;
18532;SDS011;9396;51.510;11.934;2023-11-21T02:17:18;8.87;;;3.43;;
18532;SDS011;9396;51.510;11.934;2023-11-21T02:19:45;5.23;;;3.30;;
18532;SDS011;9396;51.510;11.934;2023-11-21T02:22:13;5.10;;;3.50;;
18532;SDS011;9396;51.510;11.934;2023-11-21T02:24:43;5.50;;;3.20;;
18532;SDS011;9396;51.510;11.934;2023-11-21T02:27:10;7.20;;;3.40;;
18532;SDS011;9396;51.510;11.934;2023-11-21T02:29:37;7.33;;;3.43;;
18532;SDS011;9396;51.510;11.934;2023-11-21T02:32:04;5.50;;;3.40;;
18532;SDS011;9396;51.510;11.934;2023-11-21T02:34:30;5.03;;;3.77;;
18532;SDS011;9396;51.510;11.934;2023-11-21T02:36:58;6.40;;;3.77;;
18532;SDS011;9396;51.510;11.934;2023-11-21T02:39:24;11.40;;;3.60;;
18532;SDS011;9396;51.510;11.934;2023-11-21T02:41:53;6.57;;;3.00;;
18532;SDS011;9396;51.510;11.934;2023-11-21T02:44:19;5.33;;;3.40;;
18532;SDS011;9396;51.510;11.934;2023-11-21T02:46:46;9.97;;;4.07;;
18532;SDS011;9396;51.510;11.934;2023-11-21T02:49:13;6.13;;;3.17;;
18532;SDS011;9396;51.510;11.934;2023-11-21T02:51:39;5.90;;;3.47;;
18532;SDS011;9396;51.510;11.934;2023-11-21T02:54:06;4.67;;;2.97;;
18532;SDS011;9396;51.510;11.934;2023-11-21T02:56:33;5.30;;;3.30;;
18532;SDS011;9396;51.510;11.934;2023-11-21T02:59:01;5.43;;;3.33;;
18532;SDS011;9396;51.510;11.934;2023-11-21T03:01:28;5.60;;;2.80;;
18532;SDS011;9396;51.510;11.934;2023-11-21T03:03:55;4.63;;;3.13;;
18532;SDS011;9396;51.510;11.934;2023-11-21T03:06:22;5.13;;;3.20;;
18532;SDS011;9396;51.510;11.934;2023-11-21T03:08:48;4.10;;;3.10;;
18532;SDS011;9396;51.510;11.934;2023-11-21T03:11:15;4.97;;;3.77;;
18532;SDS011;9396;51.510;11.934;2023-11-21T03:13:42;5.23;;;3.20;;
18532;SDS011;9396;51.510;11.934;2023-11-21T03:16:11;5.10;;;3.50;;
18532;SDS011;9396;51.510;11.934;2023-11-21T03:18:38;6.43;;;3.63;;
18532;SDS011;9396;51.510;11.934;2023-11-21T03:21:06;6.83;;;4.03;;
18532;SDS011;9396;51.510;11.934;2023-11-21T03:23:34;5.70;;;4.00;;
18532;SDS011;9396;51.510;11.934;2023-11-21T03:26:00;5.80;;;4.00;;
18532;SDS011;9396;51.510;11.934;2023-11-21T03:28:27;4.93;;;3.80;;
18532;SDS011;9396;51.510;11.934;2023-11-21T03:30:55;6.93;;;3.93;;
18532;SDS011;9396;51.510;11.934;2023-11-21T03:33:23;5.60;;;4.10;;
18532;SDS011;9396;51.510;11.934;2023-11-21T03:35:50;6.40;;;3.73;;
18532;SDS011;9396;51.510;11.934;2023-11-21T03:38:18;8.40;;;4.10;;
18532;SDS011;9396;51.510;11.934;2023-11-21T03:40:44;4.20;;;3.73;;
18532;SDS011;9396;51.510;11.934;2023-11-21T03:43:12;6.13;;;3.90;;
18532;SDS011;9396;51.510;11.934;2023-11-21T03:45:39;7.43;;;4.07;;
18532;SDS011;9396;51.510;11.934;2023-11-21T03:48:06;7.77;;;4.00;;
18532;SDS011;9396;51.510;11.934;2023-11-21T03:50:34;5.07;;;3.70;;
18532;SDS011;9396;51.510;11.934;2023-11-21T03:53:00;6.97;;;3.60;;
18532;SDS011;9396;51.510;11.934;2023-11-21T03:55:27;7.57;;;4.30;;
18532;SDS011;9396;51.510;11.934;2023-11-21T03:57:54;9.13;;;3.87;;
18532;SDS011;9396;51.510;11.934;2023-11-21T04:00:20;6.13;;;4.33;;
18532;SDS011;9396;51.510;11.934;2023-11-21T04:02:47;11.80;;;3.97;;
18532;SDS011;9396;51.510;11.934;2023-11-21T04:05:16;8.83;;;4.10;;
18532;SDS011;9396;51.510;11.934;2023-11-21T04:07:44;5.53;;;3.60;;
18532;SDS011;9396;51.510;11.934;2023-11-21T04:10:10;7.70;;;3.93;;
18532;SDS011;9396;51.510;11.934;2023-11-21T04:12:38;4.77;;;3.90;;
18532;SDS011;9396;51.510;11.934;2023-11-21T04:15:05;5.60;;;3.93;;
18532;SDS011;9396;51.510;11.934;2023-11-21T04:17:33;6.97;;;4.43;;
18532;SDS011;9396;51.510;11.934;2023-11-21T04:20:01;8.40;;;4.20;;
18532;SDS011;9396;51.510;11.934;2023-11-21T04:22:28;8.87;;;5.03;;
18532;SDS011;9396;51.510;11.934;2023-11-21T04:24:56;7.13;;;4.33;;
18532;SDS011;9396;51.510;11.934;2023-11-21T04:27:23;7.57;;;4.73;;
18532;SDS011;9396;51.510;11.934;2023-11-21T04:29:49;7.80;;;4.60;;
18532;SDS011;9396;51.510;11.934;2023-11-21T04:32:16;7.37;;;4.60;;
18532;SDS011;9396;51.510;11.934;2023-11-21T04:34:43;9.93;;;4.77;;
18532;SDS011;9396;51.510;11.934;2023-11-21T04:37:09;7.87;;;4.43;;
18532;SDS011;9396;51.510;11.934;2023-11-21T04:39:37;8.90;;;4.47;;
18532;SDS011;9396;51.510;11.934;2023-11-21T04:42:05;11.17;;;4.63;;
18532;SDS011;9396;51.510;11.934;2023-11-21T04:44:32;6.33;;;5.10;;
18532;SDS011;9396;51.510;11.934;2023-11-21T04:46:58;6.73;;;4.30;;
18532;SDS011;9396;51.510;11.934;2023-11-21T04:49:25;8.83;;;4.40;;
18532;SDS011;9396;51.510;11.934;2023-11-21T04:51:52;8.43;;;5.00;;
18532;SDS011;9396;51.510;11.934;2023-11-21T04:54:18;8.77;;;5.07;;
18532;SDS011;9396;51.510;11.934;2023-11-21T04:56:45;11.07;;;4.57;;
18532;SDS011;9396;51.510;11.934;2023-11-21T04:59:13;6.93;;;5.20;;
18532;SDS011;9396;51.510;11.934;2023-11-21T05:01:39;9.13;;;4.80;;
18532;SDS011;9396;51.510;11.934;2023-11-21T05:04:06;7.47;;;4.93;;
18532;SDS011;9396;51.510;11.934;2023-11-21T05:06:33;7.90;;;4.93;;
18532;SDS011;9396;51.510;11.934;2023-11-21T05:09:00;6.03;;;4.77;;
18532;SDS011;9396;51.510;11.934;2023-11-21T05:11:28;6.83;;;4.70;;
18532;SDS011;9396;51.510;11.934;2023-11-21T05:13:55;9.57;;;4.77;;
18532;SDS011;9396;51.510;11.934;2023-11-21T05:16:25;10.27;;;4.87;;
18532;SDS011;9396;51.510;11.934;2023-11-21T05:18:52;8.53;;;4.90;;
18532;SDS011;9396;51.510;11.934;2023-11-21T05:21:21;10.30;;;5.77;;
18532;SDS011;9396;51.510;11.934;2023-11-21T05:23:48;10.10;;;5.50;;
18532;SDS011;9396;51.510;11.934;2023-11-21T05:26:15;6.97;;;5.07;;
18532;SDS011;9396;51.510;11.934;2023-11-21T05:28:41;8.90;;;5.43;;
18532;SDS011;9396;51.510;11.934;2023-11-21T05:31:08;7.77;;;5.20;;
18532;SDS011;9396;51.510;11.934;2023-11-21T05:33:37;10.50;;;5.90;;
18532;SDS011;9396;51.510;11.934;2023-11-21T05:36:04;9.00;;;5.50;;
18532;SDS011;9396;51.510;11.934;2023-11-21T05:38:33;11.87;;;5.53;;
18532;SDS011;9396;51.510;11.934;2023-11-21T05:41:00;10.70;;;6.03;;
18532;SDS011;9396;51.510;11.934;2023-11-21T05:43:27;9.30;;;5.90;;
18532;SDS011;9396;51.510;11.934;2023-11-21T05:45:54;10.93;;;5.37;;
18532;SDS011;9396;51.510;11.934;2023-11-21T05:48:21;16.60;;;6.37;;
18532;SDS011;9396;51.510;11.934;2023-11-21T05:50:49;12.50;;;5.77;;
18532;SDS011;9396;51.510;11.934;2023-11-21T05:53:16;13.33;;;6.40;;
18532;SDS011;9396;51.510;11.934;2023-11-21T05:55:43;11.63;;;6.27;;
18532;SDS011;9396;51.510;11.934;2023-11-21T05:58:09;11.17;;;6.30;;
18532;SDS011;9396;51.510;11.934;2023-11-21T06:00:36;12.93;;;6.30;;
18532;SDS011;9396;51.510;11.934;2023-11-21T06:03:03;12.70;;;5.60;;
18532;SDS011;9396;51.510;11.934;2023-11-21T06:05:32;12.13;;;6.23;;
18532;SDS011;9396;51.510;11.934;2023-11-21T06:08:00;17.00;;;7.07;;
18532;SDS011;9396;51.510;11.934;2023-11-21T06:10:27;11.80;;;7.30;;
18532;SDS011;9396;51.510;11.934;2023-11-21T06:12:53;14.10;;;6.73;;
18532;SDS011;9396;51.510;11.934;2023-11-21T06:15:20;16.00;;;7.17;;
18532;SDS011;9396;51.510;11.934;2023-11-21T06:17:48;15.80;;;7.20;;
18532;SDS011;9396;51.510;11.934;2023-11-21T06:20:17;15.90;;;7.57;;
18532;SDS011;9396;51.510;11.934;2023-11-21T06:22:46;19.70;;;7.10;;
18532;SDS011;9396;51.510;11.934;2023-11-21T06:25:15;13.57;;;7.07;;
18532;SDS011;9396;51.510;11.934;2023-11-21T06:27:42;15.70;;;6.57;;
18532;SDS011;9396;51.510;11.934;2023-11-21T06:30:10;17.23;;;7.90;;
18532;SDS011;9396;51.510;11.934;2023-11-21T06:32:39;14.23;;;7.30;;
18532;SDS011;9396;51.510;11.934;2023-11-21T06:35:06;15.57;;;7.23;;
18532;SDS011;9396;51.510;11.934;2023-11-21T06:37:35;15.50;;;7.47;;
18532;SDS011;9396;51.510;11.934;2023-11-21T06:40:02;16.70;;;7.00;;
18532;SDS011;9396;51.510;11.934;2023-11-21T06:42:31;15.47;;;8.23;;
18532;SDS011;9396;51.510;11.934;2023-11-21T06:44:58;16.07;;;7.23;;
18532;SDS011;9396;51.510;11.934;2023-11-21T06:47:28;17.67;;;7.50;;
18532;SDS011;9396;51.510;11.934;2023-11-21T06:49:55;17.30;;;7.67;;
18532;SDS011;9396;51.510;11.934;2023-11-21T06:52:22;20.53;;;7.80;;
18532;SDS011;9396;51.510;11.934;2023-11-21T06:54:49;20.63;;;8.17;;
18532;SDS011;9396;51.510;11.934;2023-11-21T06:57:16;12.53;;;7.50;;
18532;SDS011;9396;51.510;11.934;2023-11-21T06:59:44;19.53;;;8.47;;
18532;SDS011;9396;51.510;11.934;2023-11-21T07:02:11;21.87;;;8.47;;
18532;SDS011;9396;51.510;11.934;2023-11-21T07:04:37;21.20;;;9.03;;
18532;SDS011;9396;51.510;11.934;2023-11-21T07:07:04;25.93;;;10.83;;
18532;SDS011;9396;51.510;11.934;2023-11-21T07:09:32;20.30;;;9.73;;
18532;SDS011;9396;51.510;11.934;2023-11-21T07:11:58;25.13;;;10.67;;
18532;SDS011;9396;51.510;11.934;2023-11-21T07:14:25;30.57;;;13.40;;
18532;SDS011;9396;51.510;11.934;2023-11-21T07:16:53;26.77;;;13.43;;
18532;SDS011;9396;51.510;11.934;2023-11-21T07:19:20;25.93;;;13.10;;
18532;SDS011;9396;51.510;11.934;2023-11-21T07:21:47;17.13;;;11.97;;
18532;SDS011;9396;51.510;11.934;2023-11-21T07:24:15;16.47;;;9.73;;
18532;SDS011;9396;51.510;11.934;2023-11-21T07:26:42;13.77;;;8.90;;
18532;SDS011;9396;51.510;11.934;2023-11-21T07:29:09;10.13;;;7.60;;
18532;SDS011;9396;51.510;11.934;2023-11-21T07:31:36;10.57;;;7.00;;
18532;SDS011;9396;51.510;11.934;2023-11-21T07:34:04;10.90;;;7.10;;
18532;SDS011;9396;51.510;11.934;2023-11-21T07:36:31;8.73;;;6.13;;
18532;SDS011;9396;51.510;11.934;2023-11-21T07:38:58;8.13;;;5.60;;
18532;SDS011;9396;51.510;11.934;2023-11-21T07:41:25;6.90;;;5.00;;
18532;SDS011;9396;51.510;11.934;2023-11-21T07:43:52;7.27;;;4.63;;
18532;SDS011;9396;51.510;11.934;2023-11-21T07:46:21;6.57;;;4.73;;
18532;SDS011;9396;51.510;11.934;2023-11-21T07:48:49;5.97;;;4.40;;
18532;SDS011;9396;51.510;11.934;2023-11-21T07:51:18;6.10;;;4.67;;
18532;SDS011;9396;51.510;11.934;2023-11-21T07:53:45;6.63;;;4.27;;
18532;SDS011;9396;51.510;11.934;2023-11-21T07:56:12;7.50;;;5.00;;
18532;SDS011;9396;51.510;11.934;2023-11-21T07:58:39;7.87;;;5.30;;
18532;SDS011;9396;51.510;11.934;2023-11-21T08:01:05;7.30;;;5.43;;
18532;SDS011;9396;51.510;11.934;2023-11-21T08:03:33;8.73;;;5.63;;
18532;SDS011;9396;51.510;11.934;2023-11-21T08:05:59;7.13;;;5.20;;
18532;SDS011;9396;51.510;11.934;2023-11-21T08:08:29;7.70;;;5.50;;
18532;SDS011;9396;51.510;11.934;2023-11-21T08:10:57;8.83;;;5.60;;
18532;SDS011;9396;51.510;11.934;2023-11-21T08:13:24;7.40;;;6.03;;
18532;SDS011;9396;51.510;11.934;2023-11-21T08:15:53;8.33;;;6.17;;
18532;SDS011;9396;51.510;11.934;2023-11-21T08:18:21;10.90;;;6.73;;
18532;SDS011;9396;51.510;11.934;2023-11-21T08:20:47;12.03;;;6.10;;
18532;SDS011;9396;51.510;11.934;2023-11-21T08:23:14;9.43;;;7.17;;
18532;SDS011;9396;51.510;11.934;2023-11-21T08:25:43;10.17;;;6.90;;
18532;SDS011;9396;51.510;11.934;2023-11-21T08:28:10;11.47;;;7.23;;
18532;SDS011;9396;51.510;11.934;2023-11-21T08:30:37;10.43;;;6.77;;
18532;SDS011;9396;51.510;11.934;2023-11-21T08:33:04;10.87;;;7.77;;
18532;SDS011;9396;51.510;11.934;2023-11-21T08:35:31;11.07;;;7.83;;
18532;SDS011;9396;51.510;11.934;2023-11-21T08:37:57;11.13;;;7.93;;
18532;SDS011;9396;51.510;11.934;2023-11-21T08:40:24;9.27;;;7.30;;
18532;SDS011;9396;51.510;11.934;2023-11-21T08:42:52;13.50;;;7.83;;
18532;SDS011;9396;51.510;11.934;2023-11-21T08:45:20;10.80;;;7.60;;
18532;SDS011;9396;51.510;11.934;2023-11-21T08:47:47;12.10;;;8.40;;
18532;SDS011;9396;51.510;11.934;2023-11-21T08:50:15;13.67;;;9.80;;
18532;SDS011;9396;51.510;11.934;2023-11-21T08:52:42;15.97;;;9.97;;
18532;SDS011;9396;51.510;11.934;2023-11-21T08:55:11;15.70;;;10.97;;
18532;SDS011;9396;51.510;11.934;2023-11-21T08:57:39;16.17;;;10.23;;
18532;SDS011;9396;51.510;11.934;2023-11-21T09:00:08;13.77;;;9.77;;
18532;SDS011;9396;51.510;11.934;2023-11-21T09:02:36;15.87;;;10.53;;
18532;SDS011;9396;51.510;11.934;2023-11-21T09:05:04;16.07;;;10.73;;
18532;SDS011;9396;51.510;11.934;2023-11-21T09:07:31;18.37;;;12.23;;
18532;SDS011;9396;51.510;11.934;2023-11-21T09:09:58;18.43;;;12.53;;
18532;SDS011;9396;51.510;11.934;2023-11-21T09:12:24;18.90;;;12.27;;
18532;SDS011;9396;51.510;11.934;2023-11-21T09:14:51;18.70;;;12.57;;
18532;SDS011;9396;51.510;11.934;2023-11-21T09:17:19;17.27;;;11.83;;
18532;SDS011;9396;51.510;11.934;2023-11-21T09:19:46;17.77;;;12.03;;
18532;SDS011;9396;51.510;11.934;2023-11-21T09:22:16;15.73;;;11.13;;
18532;SDS011;9396;51.510;11.934;2023-11-21T09:24:43;15.93;;;10.33;;
18532;SDS011;9396;51.510;11.934;2023-11-21T09:27:10;16.50;;;10.30;;
18532;SDS011;9396;51.510;11.934;2023-11-21T09:29:37;14.53;;;10.20;;
18532;SDS011;9396;51.510;11.934;2023-11-21T09:32:04;14.83;;;11.07;;
18532;SDS011;9396;51.510;11.934;2023-11-21T09:34:34;18.87;;;12.20;;
18532;SDS011;9396;51.510;11.934;2023-11-21T09:37:03;19.10;;;12.50;;
18532;SDS011;9396;51.510;11.934;2023-11-21T09:39:31;16.87;;;12.17;;
18532;SDS011;9396;51.510;11.934;2023-11-21T09:41:59;19.13;;;12.20;;
18532;SDS011;9396;51.510;11.934;2023-11-21T09:44:32;15.90;;;11.30;;
18532;SDS011;9396;51.510;11.934;2023-11-21T09:47:02;15.33;;;10.57;;
18532;SDS011;9396;51.510;11.934;2023-11-21T09:49:29;17.33;;;11.03;;
18532;SDS011;9396;51.510;11.934;2023-11-21T09:52:01;16.00;;;11.50;;
18532;SDS011;9396;51.510;11.934;2023-11-21T09:54:31;17.67;;;10.73;;
18532;SDS011;9396;51.510;11.934;2023-11-21T09:56:58;15.17;;;10.33;;
18532;SDS011;9396;51.510;11.934;2023-11-21T09:59:26;17.00;;;10.20;;
18532;SDS011;9396;51.510;11.934;2023-11-21T10:01:57;15.73;;;11.37;;
18532;SDS011;9396;51.510;11.934;2023-11-21T10:04:24;15.83;;;11.10;;
18532;SDS011;9396;51.510;11.934;2023-11-21T10:06:52;16.07;;;11.03;;
18532;SDS011;9396;51.510;11.934;2023-11-21T10:09:21;15.90;;;10.60;;
18532;SDS011;9396;51.510;11.934;2023-11-21T10:11:49;14.60;;;9.47;;
18532;SDS011;9396;51.510;11.934;2023-11-21T10:14:17;16.97;;;10.30;;
18532;SDS011;9396;51.510;11.934;2023-11-21T10:16:49;11.30;;;8.97;;
18532;SDS011;9396;51.510;11.934;2023-11-21T10:19:18;12.63;;;9.83;;
18532;SDS011;9396;51.510;11.934;2023-11-21T10:21:47;11.40;;;8.70;;
18532;SDS011;9396;51.510;11.934;2023-11-21T10:24:14;11.97;;;8.73;;
18532;SDS011;9396;51.510;11.934;2023-11-21T10:26:43;14.50;;;8.87;;
18532;SDS011;9396;51.510;11.934;2023-11-21T10:29:10;16.70;;;10.10;;
18532;SDS011;9396;51.510;11.934;2023-11-21T10:31:41;11.43;;;9.00;;
18532;SDS011;9396;51.510;11.934;2023-11-21T10:34:13;13.43;;;8.73;;
18532;SDS011;9396;51.510;11.934;2023-11-21T10:36:41;13.00;;;8.83;;
18532;SDS011;9396;51.510;11.934;2023-11-21T10:39:07;12.40;;;8.93;;
18532;SDS011;9396;51.510;11.934;2023-11-21T10:41:35;11.97;;;9.23;;
18532;SDS011;9396;51.510;11.934;2023-11-21T10:44:04;13.20;;;9.03;;
18532;SDS011;9396;51.510;11.934;2023-11-21T10:46:32;13.13;;;8.90;;
18532;SDS011;9396;51.510;11.934;2023-11-21T10:48:59;11.57;;;9.50;;
18532;SDS011;9396;51.510;11.934;2023-11-21T10:51:27;13.10;;;9.00;;
18532;SDS011;9396;51.510;11.934;2023-11-21T10:53:53;10.50;;;8.53;;
18532;SDS011;9396;51.510;11.934;2023-11-21T10:56:23;11.60;;;8.63;;
18532;SDS011;9396;51.510;11.934;2023-11-21T10:58:49;11.80;;;9.23;;
18532;SDS011;9396;51.510;11.934;2023-11-21T11:01:18;11.07;;;9.17;;
18532;SDS011;9396;51.510;11.934;2023-11-21T11:03:46;13.13;;;10.50;;
18532;SDS011;9396;51.510;11.934;2023-11-21T11:06:13;15.87;;;10.73;;
18532;SDS011;9396;51.510;11.934;2023-11-21T11:08:40;14.20;;;10.37;;
18532;SDS011;9396;51.510;11.934;2023-11-21T11:11:07;13.93;;;10.60;;
18532;SDS011;9396;51.510;11.934;2023-11-21T11:13:35;14.40;;;11.30;;
18532;SDS011;9396;51.510;11.934;2023-11-21T11:16:03;14.00;;;10.63;;
18532;SDS011;9396;51.510;11.934;2023-11-21T11:18:34;13.23;;;10.63;;
18532;SDS011;9396;51.510;11.934;2023-11-21T11:21:01;14.23;;;10.60;;
18532;SDS011;9396;51.510;11.934;2023-11-21T11:23:41;12.37;;;9.60;;
18532;SDS011;9396;51.510;11.934;2023-11-21T11:26:23;12.77;;;9.90;;
18532;SDS011;9396;51.510;11.934;2023-11-21T11:29:01;12.00;;;9.67;;
18532;SDS011;9396;51.510;11.934;2023-11-21T11:31:36;14.53;;;10.57;;
18532;SDS011;9396;51.510;11.934;2023-11-21T11:34:17;14.20;;;11.00;;
18532;SDS011;9396;51.510;11.934;2023-11-21T11:36:52;14.50;;;11.10;;
18532;SDS011;9396;51.510;11.934;2023-11-21T11:39:28;13.67;;;10.13;;
18532;SDS011;9396;51.510;11.934;2023-11-21T11:41:56;19.03;;;12.73;;
18532;SDS011;9396;51.510;11.934;2023-11-21T11:47:16;20.60;;;13.50;;
18532;SDS011;9396;51.510;11.934;2023-11-21T11:49:56;20.20;;;13.20;;
18532;SDS011;9396;51.510;11.934;2023-11-21T11:52:39;20.33;;;14.03;;
18532;SDS011;9396;51.510;11.934;2023-11-21T11:55:06;21.33;;;14.57;;
18532;SDS011;9396;51.510;11.934;2023-11-21T11:57:36;23.47;;;14.00;;
18532;SDS011;9396;51.510;11.934;2023-11-21T12:00:08;25.30;;;14.53;;
18532;SDS011;9396;51.510;11.934;2023-11-21T12:02:41;24.07;;;14.23;;
18532;SDS011;9396;51.510;11.934;2023-11-21T12:05:11;18.93;;;13.33;;
18532;SDS011;9396;51.510;11.934;2023-11-21T12:07:43;20.70;;;13.90;;
18532;SDS011;9396;51.510;11.934;2023-11-21T12:10:14;22.80;;;14.07;;
18532;SDS011;9396;51.510;11.934;2023-11-21T12:12:43;21.37;;;13.17;;
18532;SDS011;9396;51.510;11.934;2023-11-21T12:15:11;20.60;;;12.63;;
18532;SDS011;9396;51.510;11.934;2023-11-21T12:17:39;21.57;;;13.17;;
18532;SDS011;9396;51.510;11.934;2023-11-21T12:20:06;17.23;;;12.33;;
18532;SDS011;9396;51.510;11.934;2023-11-21T12:22:41;17.30;;;12.30;;
18532;SDS011;9396;51.510;11.934;2023-11-21T12:25:09;19.00;;;12.67;;
18532;SDS011;9396;51.510;11.934;2023-11-21T12:27:41;20.37;;;11.93;;
18532;SDS011;9396;51.510;11.934;2023-11-21T12:30:09;17.03;;;11.87;;
18532;SDS011;9396;51.510;11.934;2023-11-21T12:32:38;17.53;;;12.50;;
18532;SDS011;9396;51.510;11.934;2023-11-21T12:35:06;22.00;;;11.43;;
18532;SDS011;9396;51.510;11.934;2023-11-21T12:37:35;14.37;;;11.10;;
18532;SDS011;9396;51.510;11.934;2023-11-21T12:40:04;15.77;;;11.50;;
18532;SDS011;9396;51.510;11.934;2023-11-21T12:42:36;20.57;;;12.10;;
18532;SDS011;9396;51.510;11.934;2023-11-21T12:45:15;15.93;;;11.23;;
18532;SDS011;9396;51.510;11.934;2023-11-21T12:47:45;19.10;;;11.03;;
18532;SDS011;9396;51.510;11.934;2023-11-21T12:50:13;16.63;;;10.63;;
18532;SDS011;9396;51.510;11.934;2023-11-21T12:52:43;13.90;;;9.20;;
18532;SDS011;9396;51.510;11.934;2023-11-21T12:55:17;11.90;;;9.27;;
18532;SDS011;9396;51.510;11.934;2023-11-21T12:57:47;11.33;;;8.67;;
18532;SDS011;9396;51.510;11.934;2023-11-21T13:00:15;10.67;;;8.97;;
18532;SDS011;9396;51.510;11.934;2023-11-21T13:02:52;11.57;;;8.37;;
18532;SDS011;9396;51.510;11.934;2023-11-21T13:05:24;11.43;;;8.20;;
18532;SDS011;9396;51.510;11.934;2023-11-21T13:07:51;10.90;;;7.97;;
18532;SDS011;9396;51.510;11.934;2023-11-21T13:10:21;10.23;;;7.83;;
18532;SDS011;9396;51.510;11.934;2023-11-21T13:12:51;11.93;;;8.23;;
18532;SDS011;9396;51.510;11.934;2023-11-21T13:15:19;11.23;;;8.37;;
18532;SDS011;9396;51.510;11.934;2023-11-21T13:17:46;12.43;;;8.17;;
18532;SDS011;9396;51.510;11.934;2023-11-21T13:20:13;10.63;;;7.83;;
18532;SDS011;9396;51.510;11.934;2023-11-21T13:22:45;11.37;;;8.53;;
18532;SDS011;9396;51.510;11.934;2023-11-21T13:25:14;12.87;;;8.77;;
18532;SDS011;9396;51.510;11.934;2023-11-21T13:27:44;11.33;;;8.53;;
18532;SDS011;9396;51.510;11.934;2023-11-21T13:30:11;11.50;;;8.57;;
18532;SDS011;9396;51.510;11.934;2023-11-21T13:32:42;14.23;;;8.00;;
18532;SDS011;9396;51.510;11.934;2023-11-21T13:35:10;9.60;;;6.97;;
18532;SDS011;9396;51.510;11.934;2023-11-21T13:37:46;10.83;;;7.87;;
18532;SDS011;9396;51.510;11.934;2023-11-21T13:40:16;12.33;;;7.87;;
18532;SDS011;9396;51.510;11.934;2023-11-21T13:42:49;11.27;;;8.27;;
18532;SDS011;9396;51.510;11.934;2023-11-21T13:45:18;11.50;;;7.80;;
18532;SDS011;9396;51.510;11.934;2023-11-21T13:47:48;9.47;;;7.17;;
18532;SDS011;9396;51.510;11.934;2023-11-21T13:50:16;14.87;;;7.53;;
18532;SDS011;9396;51.510;11.934;2023-11-21T13:52:47;10.07;;;7.57;;
18532;SDS011;9396;51.510;11.934;2023-11-21T13:55:14;11.10;;;7.47;;
18532;SDS011;9396;51.510;11.934;2023-11-21T13:57:41;8.73;;;7.03;;
18532;SDS011;9396;51.510;11.934;2023-11-21T14:00:12;13.03;;;7.17;;
18532;SDS011;9396;51.510;11.934;2023-11-21T14:02:59;7.63;;;6.30;;
18532;SDS011;9396;51.510;11.934;2023-11-21T14:05:30;9.50;;;7.27;;
18532;SDS011;9396;51.510;11.934;2023-11-21T14:07:59;10.97;;;7.30;;
18532;SDS011;9396;51.510;11.934;2023-11-21T14:10:29;9.90;;;6.80;;
18532;SDS011;9396;51.510;11.934;2023-11-21T14:13:05;8.30;;;6.40;;
18532;SDS011;9396;51.510;11.934;2023-11-21T14:15:33;9.03;;;5.70;;
18532;SDS011;9396;51.510;11.934;2023-11-21T14:18:03;8.70;;;5.77;;
18532;SDS011;9396;51.510;11.934;2023-11-21T14:20:32;7.90;;;5.80;;
18532;SDS011;9396;51.510;11.934;2023-11-21T14:23:01;6.53;;;5.10;;
18532;SDS011;9396;51.510;11.934;2023-11-21T14:25:28;5.73;;;5.00;;
18532;SDS011;9396;51.510;11.934;2023-11-21T14:27:54;8.90;;;6.03;;
18532;SDS011;9396;51.510;11.934;2023-11-21T14:30:21;8.30;;;5.53;;
18532;SDS011;9396;51.510;11.934;2023-11-21T14:32:49;8.70;;;5.47;;
18532;SDS011;9396;51.510;11.934;2023-11-21T14:35:16;9.17;;;6.10;;
18532;SDS011;9396;51.510;11.934;2023-11-21T14:37:43;7.43;;;5.53;;
18532;SDS011;9396;51.510;11.934;2023-11-21T14:40:11;7.33;;;5.93;;
18532;SDS011;9396;51.510;11.934;2023-11-21T14:42:41;8.20;;;6.33;;
18532;SDS011;9396;51.510;11.934;2023-11-21T14:45:08;9.67;;;7.00;;
18532;SDS011;9396;51.510;11.934;2023-11-21T14:47:38;9.10;;;7.37;;